AIRPORT ID: 9V6

DATE: 2024-05-27 ZULU TIME: 20.55 LOCAL TIME: 14.55


METAR K9V6 272055Z AUTO 27008KT 21/12 A3005

ALTIMETER: A3005 Q1018

DENSITY ALT: 4500 Ft

WIND DIRECT: 280

WIND SPEED: 8 Gust

WIND CONDITIONS:

VISIBILTY: Not Available

TEMPERATURE: 69 F 21 C

DEW POINT: 54 F 12 C

HUMID: 58%

LCL: 3,000-5,000 feet

RADIO CHECK: 0

ADVISARIES: 0

GREETINGS: 0

CONVERSATIONS: 0